GCTS/TFS METAR and TAF weather

Enter ICAO airport designator
Station Type Date Time Source
GCTS METAR 2020/04/05 15:00 UTC NOAA

GCTS 051500Z 19006KT 140V230 9999 FEW040 23/15 Q1018 NOSIG


Station Type Date Time Source
GCTS Decoded METAR 2020/04/05 15:00 UTC NOAA

Tenerife Sur, Spain (GCTS) 28-03N 016-34W 77M
Apr 05, 2020 - 11:00 AM EDT / 2020.04.05 1500 UTC
Wind: from the S (190 degrees) at 7 MPH (6 KT) (direction variable):0
Visibility: greater than 7 mile(s):0
Sky conditions: mostly clear
Temperature: 73 F (23 C)
Dew Point: 59 F (15 C)
Relative Humidity: 60%
Pressure (altimeter): 30.06 in. Hg (1018 hPa)
ob: GCTS 051500Z 19006KT 140V230 9999 FEW040 23/15 Q1018 NOSIG
cycle: 15

Station Type Date Time Source
GCTS TAF 2020/04/05 15:27 UTC NOAA

TAF GCTS 051400Z 0515/0615 16006KT 9999 FEW025 TX23/0515Z TN17/0606Z

Example: see airport list